Time;durP1;ratioP1;P1;durP2;ratioP2;P2;SDS_P1;SDS_P2;PMS_P1;PMS_P2;Temp;Humidity;BMP_temperature;BMP_pressure;BME280_temperature;BME280_humidity;BME280_pressure;Samples;Min_cycle;Max_cycle;Signal;HPM_P1;HPM_P2
2022/10/06 00:00:23;;;;;;;0.30;0.30;;;;;;;13.99;76.99;101850.16;2037884;29;20059;-72
2022/10/06 00:01:25;;;;;;;0.40;0.40;;;;;;;13.98;76.74;101849.38;2030730;29;20127;-72
2022/10/06 00:02:28;;;;;;;0.35;0.35;;;;;;;13.98;76.64;101854.81;2030502;29;20689;-72
2022/10/06 00:03:31;;;;;;;0.40;0.40;;;;;;;13.95;76.49;101857.41;2038988;29;20526;-73
2022/10/06 00:04:34;;;;;;;0.40;0.40;;;;;;;13.94;76.42;101869.41;2038143;29;20055;-73
2022/10/06 00:05:37;;;;;;;0.40;0.40;;;;;;;13.93;76.33;101863.19;2038278;29;20062;-73
2022/10/06 00:06:40;;;;;;;0.30;0.30;;;;;;;13.93;76.64;101862.38;2031392;28;20063;-72
2022/10/06 00:07:42;;;;;;;0.32;0.32;;;;;;;13.91;76.20;101875.50;2030420;29;20056;-72
2022/10/06 00:08:46;;;;;;;0.40;0.40;;;;;;;13.90;75.85;101869.28;2029977;29;20068;-71
2022/10/06 00:09:49;;;;;;;0.32;0.32;;;;;;;13.89;75.58;101877.78;2030676;29;20060;-72
2022/10/06 00:10:54;;;;;;;0.30;0.30;;;;;;;13.89;76.14;101877.78;2038639;29;20055;-72
2022/10/06 00:11:56;;;;;;;0.40;0.40;;;;;;;13.89;75.43;101877.78;2039125;29;20408;-72
2022/10/06 00:12:59;;;;;;;0.30;0.30;;;;;;;13.90;75.92;101890.19;2039030;29;20048;-72
2022/10/06 00:14:01;;;;;;;0.30;0.30;;;;;;;13.88;75.34;101887.81;2038574;29;20067;-71
2022/10/06 00:15:05;;;;;;;0.30;0.30;;;;;;;13.87;75.14;101894.41;2038167;29;20500;-71
2022/10/06 00:16:11;;;;;;;0.38;0.38;;;;;;;13.89;75.36;101888.63;2039348;29;20734;-72
2022/10/06 00:17:14;;;;;;;0.40;0.40;;;;;;;13.87;75.66;101890.88;2038718;29;20103;-72
2022/10/06 00:18:16;;;;;;;0.40;0.40;;;;;;;13.86;75.17;101890.06;2037844;29;20064;-72
2022/10/06 00:19:19;;;;;;;0.30;0.30;;;;;;;13.86;75.50;101905.59;2038748;29;20059;-72
2022/10/06 00:20:21;;;;;;;0.32;0.32;;;;;;;13.86;74.50;101908.31;2038401;29;20086;-71
2022/10/06 00:21:24;;;;;;;0.30;0.30;;;;;;;13.86;74.73;101913.75;2037815;29;20052;-72
2022/10/06 00:22:32;;;;;;;0.30;0.30;;;;;;;13.85;73.49;101920.28;2038677;29;20141;-70
2022/10/06 00:23:36;;;;;;;0.30;0.30;;;;;;;13.85;74.16;101909.41;2038019;29;20056;-71
2022/10/06 00:24:38;;;;;;;0.30;0.30;;;;;;;13.87;74.26;101923.47;2038911;29;20051;-71
2022/10/06 00:25:42;;;;;;;0.30;0.30;;;;;;;13.86;73.75;101924.59;2038141;29;20051;-71
2022/10/06 00:26:45;;;;;;;0.40;0.40;;;;;;;13.85;73.21;101925.69;2037940;29;20071;-71
2022/10/06 00:27:50;;;;;;;0.30;0.30;;;;;;;13.85;73.04;101931.13;2038737;29;20044;-71
2022/10/06 00:28:52;;;;;;;0.30;0.30;;;;;;;13.84;72.33;101929.56;2038698;29;20063;-72
2022/10/06 00:29:55;;;;;;;0.30;0.30;;;;;;;13.85;72.71;101942.78;2038401;29;20052;-71
2022/10/06 00:31:00;;;;;;;0.30;0.30;;;;;;;13.83;72.12;101944.25;2030539;29;20535;-72
2022/10/06 00:32:03;;;;;;;0.40;0.40;;;;;;;13.82;72.80;101939.94;2030885;29;20083;-71
2022/10/06 00:33:04;;;;;;;0.32;0.32;;;;;;;13.80;72.59;101944.91;2038639;29;20056;-71
2022/10/06 00:34:07;;;;;;;0.32;0.32;;;;;;;13.80;72.46;101944.91;2030477;29;20055;-71
2022/10/06 00:35:09;;;;;;;0.40;0.40;;;;;;;13.78;72.35;101939.03;2030738;29;20055;-72
2022/10/06 00:36:12;;;;;;;0.30;0.30;;;;;;;13.77;72.77;101943.69;2038372;29;20055;-71
2022/10/06 00:37:14;;;;;;;0.20;0.20;;;;;;;13.77;72.73;101942.88;2037663;29;20059;-71
2022/10/06 00:38:17;;;;;;;0.30;0.30;;;;;;;13.76;72.62;101939.38;2023699;29;20057;-71
2022/10/06 00:39:21;;;;;;;0.30;0.30;;;;;;;13.73;72.96;101945.44;2015163;29;20087;-72
2022/10/06 00:40:23;;;;;;;0.30;0.30;;;;;;;13.71;72.75;101942.31;2030947;29;20067;-71
2022/10/06 00:41:28;;;;;;;0.30;0.30;;;;;;;13.71;73.21;101941.50;2039574;29;20048;-71
2022/10/06 00:42:31;;;;;;;0.35;0.35;;;;;;;13.68;73.03;101936.75;2038312;29;20087;-71
2022/10/06 00:43:50;;;;;;;0.30;0.30;;;;;;;13.62;73.01;101943.50;2038966;29;20074;-71
2022/10/06 00:44:52;;;;;;;0.30;0.30;;;;;;;13.62;73.93;101949.72;2038995;29;20783;-72
2022/10/06 00:45:54;;;;;;;0.30;0.30;;;;;;;13.63;73.97;101948.59;2038411;29;20602;-72
2022/10/06 00:46:56;;;;;;;0.30;0.30;;;;;;;13.60;74.11;101951.19;2037920;29;20157;-73
2022/10/06 00:48:05;;;;;;;0.30;0.30;;;;;;;13.60;74.04;101952.00;2038575;29;20511;-72
2022/10/06 00:49:13;;;;;;;0.30;0.30;;;;;;;13.58;74.06;101954.22;2030223;29;20091;-72
2022/10/06 00:50:15;;;;;;;0.35;0.35;;;;;;;13.57;74.87;101958.84;2031999;29;20091;-72
2022/10/06 00:51:21;;;;;;;0.30;0.30;;;;;;;13.57;74.54;101948.00;2038601;29;20051;-72
2022/10/06 00:52:28;;;;;;;0.40;0.40;;;;;;;13.57;74.47;101958.09;2038898;29;20063;-72
2022/10/06 00:53:32;;;;;;;0.40;0.40;;;;;;;13.57;75.21;101958.09;2038238;29;20082;-72
2022/10/06 00:54:35;;;;;;;0.30;0.30;;;;;;;13.58;74.69;101951.53;2038409;29;20055;-72
2022/10/06 00:55:38;;;;;;;0.30;0.30;;;;;;;13.57;74.61;101958.84;2038431;29;20048;-72
2022/10/06 00:56:42;;;;;;;0.30;0.30;;;;;;;13.57;75.42;101967.00;2030298;29;20539;-72
2022/10/06 00:57:45;;;;;;;0.40;0.40;;;;;;;13.59;75.24;101972.09;2023285;29;20131;-72
2022/10/06 00:58:49;;;;;;;0.30;0.30;;;;;;;13.59;75.04;101971.31;2030548;29;20056;-72
2022/10/06 00:59:51;;;;;;;0.25;0.25;;;;;;;13.57;75.92;101968.94;2037485;29;20051;-71
2022/10/06 01:00:55;;;;;;;0.30;0.30;;;;;;;13.57;75.62;101979.78;2038735;29;20499;-72
2022/10/06 01:02:03;;;;;;;0.32;0.32;;;;;;;13.59;75.22;101979.47;2031444;29;20076;-70
2022/10/06 01:03:09;;;;;;;0.30;0.30;;;;;;;13.57;75.79;101980.56;2015447;29;20228;-72
2022/10/06 01:04:14;;;;;;;0.30;0.30;;;;;;;13.57;75.29;101981.69;2024928;29;20068;-72
2022/10/06 01:05:28;;;;;;;0.30;0.30;;;;;;;13.56;75.30;101988.28;2037636;29;20501;-72
2022/10/06 01:06:40;;;;;;;0.30;0.30;;;;;;;13.51;75.75;101976.47;2032487;29;20563;-72
2022/10/06 01:07:43;;;;;;;0.40;0.40;;;;;;;13.53;75.67;101984.28;2032451;29;20104;-71
2022/10/06 01:08:45;;;;;;;0.30;0.30;;;;;;;13.53;75.60;101985.09;2031879;29;20048;-71
2022/10/06 01:09:49;;;;;;;0.32;0.32;;;;;;;13.53;75.17;101990.50;2031286;29;20048;-72
2022/10/06 01:10:51;;;;;;;0.30;0.30;;;;;;;13.53;75.57;101985.09;2032108;29;20163;-71
2022/10/06 01:11:59;;;;;;;0.30;0.30;;;;;;;13.52;75.08;101993.56;2030852;29;20061;-71
2022/10/06 01:13:02;;;;;;;0.30;0.30;;;;;;;13.48;75.49;101982.56;2025055;29;20059;-71
2022/10/06 01:14:06;;;;;;;0.30;0.30;;;;;;;13.50;75.64;101999.31;2033541;29;20055;-72
2022/10/06 01:15:09;;;;;;;0.20;0.20;;;;;;;13.50;75.19;101991.19;2038594;29;20454;-72
2022/10/06 01:16:18;;;;;;;0.30;0.30;;;;;;;13.48;75.12;101996.13;2032284;29;20088;-72
2022/10/06 01:17:28;;;;;;;0.35;0.35;;;;;;;13.47;75.27;102002.69;2039881;29;20739;-72
2022/10/06 01:18:32;;;;;;;0.30;0.30;;;;;;;13.48;74.99;101998.03;2038360;29;20746;-72
2022/10/06 01:19:46;;;;;;;0.20;0.20;;;;;;;13.46;74.59;102001.09;2039663;29;20586;-72
2022/10/06 01:20:56;;;;;;;0.30;0.30;;;;;;;13.45;74.59;102006.84;2032793;29;20427;-71
2022/10/06 01:22:04;;;;;;;0.30;0.30;;;;;;;13.45;75.07;102004.94;2033490;29;20059;-72
2022/10/06 01:23:12;;;;;;;0.30;0.30;;;;;;;13.44;74.53;102007.97;2040029;29;20091;-72
2022/10/06 01:24:16;;;;;;;0.30;0.30;;;;;;;13.46;75.15;102001.09;2031765;29;20047;-72
2022/10/06 01:25:20;;;;;;;0.30;0.30;;;;;;;13.44;74.67;102006.06;2016540;29;20048;-71
2022/10/06 01:26:24;;;;;;;0.22;0.22;;;;;;;13.43;74.83;102007.19;2016963;29;20576;-72
2022/10/06 01:27:30;;;;;;;0.20;0.20;;;;;;;13.45;74.95;102021.22;2033273;29;20099;-71
2022/10/06 01:28:32;;;;;;;0.30;0.30;;;;;;;13.43;74.75;102017.22;2040316;29;20467;-71
2022/10/06 01:29:36;;;;;;;0.30;0.30;;;;;;;13.46;74.70;102005.75;2039872;29;20051;-71
2022/10/06 01:30:42;;;;;;;0.20;0.20;;;;;;;13.46;74.98;102019.31;2031481;29;20059;-71
2022/10/06 01:31:46;;;;;;;0.30;0.30;;;;;;;13.44;75.32;102014.22;2025121;29;20048;-72
2022/10/06 01:32:48;;;;;;;0.30;0.30;;;;;;;13.43;74.74;102026.16;2024486;29;20452;-72
2022/10/06 01:33:52;;;;;;;0.30;0.30;;;;;;;13.44;75.00;102022.34;2023399;29;20123;-72
2022/10/06 01:34:54;;;;;;;0.30;0.30;;;;;;;13.44;75.49;102025.06;2032423;29;20507;-71
2022/10/06 01:35:57;;;;;;;0.30;0.30;;;;;;;13.43;75.24;102034.31;2031349;29;20543;-71
2022/10/06 01:36:59;;;;;;;0.30;0.30;;;;;;;13.43;75.47;102028.06;2032936;29;20503;-71
2022/10/06 01:38:02;;;;;;;0.30;0.30;;;;;;;13.40;75.15;102040.41;2037462;29;20059;-72
2022/10/06 01:39:06;;;;;;;0.20;0.20;;;;;;;13.40;75.20;102036.88;2023232;29;20651;-72
2022/10/06 01:40:10;;;;;;;0.30;0.30;;;;;;;13.39;75.25;102044.25;2024488;29;20049;-72
2022/10/06 01:41:12;;;;;;;0.30;0.30;;;;;;;13.36;75.48;102034.06;2032148;29;20094;-72
2022/10/06 01:42:15;;;;;;;0.20;0.20;;;;;;;13.34;75.50;102036.28;2023686;29;20492;-72
2022/10/06 01:43:17;;;;;;;0.30;0.30;;;;;;;13.34;75.01;102030.88;2030622;29;20059;-73
2022/10/06 01:44:20;;;;;;;0.22;0.22;;;;;;;13.34;74.88;102039.00;2042131;29;20063;-70
2022/10/06 01:45:24;;;;;;;0.30;0.30;;;;;;;13.33;75.07;102040.13;2032381;29;20523;-72
2022/10/06 01:46:28;;;;;;;0.30;0.30;;;;;;;13.32;75.14;102041.25;2032399;29;20048;-71
2022/10/06 01:47:32;;;;;;;0.30;0.30;;;;;;;13.30;74.41;102046.19;2040302;29;20453;-72
2022/10/06 01:48:35;;;;;;;0.30;0.30;;;;;;;13.29;74.64;102050.03;2040409;29;20060;-72
2022/10/06 01:49:37;;;;;;;0.30;0.30;;;;;;;13.30;73.97;102061.69;2040536;29;20051;-72
2022/10/06 01:50:41;;;;;;;0.20;0.20;;;;;;;13.29;74.01;102055.47;2031525;29;20060;-72
2022/10/06 01:51:44;;;;;;;0.20;0.20;;;;;;;13.28;74.16;102062.03;2031938;29;20159;-72
2022/10/06 01:52:47;;;;;;;0.30;0.30;;;;;;;13.26;73.37;102072.41;2039109;29;20048;-72
2022/10/06 01:53:49;;;;;;;0.30;0.30;;;;;;;13.26;73.63;102075.13;2031998;29;20150;-72
2022/10/06 01:54:54;;;;;;;0.28;0.28;;;;;;;13.27;73.55;102078.63;2031259;29;20076;-71
2022/10/06 01:55:58;;;;;;;0.22;0.22;;;;;;;13.24;72.83;102080.06;2039188;29;20130;-71
2022/10/06 01:57:02;;;;;;;0.30;0.30;;;;;;;13.22;72.75;102082.31;2040124;29;20054;-71
2022/10/06 01:58:04;;;;;;;0.20;0.20;;;;;;;13.22;72.98;102079.59;2038359;29;20503;-72
2022/10/06 01:59:07;;;;;;;0.22;0.22;;;;;;;13.20;72.83;102092.69;2024256;29;20401;-71
2022/10/06 02:00:10;;;;;;;0.20;0.20;;;;;;;13.18;72.11;102096.84;2016898;29;20112;-71
2022/10/06 02:01:17;;;;;;;0.28;0.28;;;;;;;13.15;72.34;102098.31;2024161;29;20424;-72
2022/10/06 02:02:19;;;;;;;0.30;0.30;;;;;;;13.15;71.91;102102.94;2039229;29;20052;-72
2022/10/06 02:03:22;;;;;;;0.35;0.35;;;;;;;13.13;72.15;102089.69;2039341;29;20419;-72
2022/10/06 02:04:24;;;;;;;0.30;0.30;;;;;;;13.12;72.20;102093.53;2040581;29;20531;-72
2022/10/06 02:05:27;;;;;;;0.30;0.30;;;;;;;13.13;72.13;102095.13;2032973;29;20052;-72
2022/10/06 02:06:29;;;;;;;0.20;0.20;;;;;;;13.12;71.88;102098.97;2032420;29;20101;-71
2022/10/06 02:07:35;;;;;;;0.20;0.20;;;;;;;13.08;71.76;102099.94;2039585;29;20048;-71
2022/10/06 02:08:37;;;;;;;0.30;0.30;;;;;;;13.07;71.57;102101.06;2038504;29;20043;-71
2022/10/06 02:09:40;;;;;;;0.20;0.20;;;;;;;13.08;72.10;102100.72;2032066;29;20055;-71
2022/10/06 02:10:44;;;;;;;0.20;0.20;;;;;;;13.08;71.60;102114.28;2025295;29;20060;-71
2022/10/06 02:11:54;;;;;;;0.40;0.40;;;;;;;13.06;71.56;102110.31;2032686;29;20079;-72
2022/10/06 02:12:56;;;;;;;0.20;0.20;;;;;;;13.08;71.89;102116.22;2029127;29;20606;-73
2022/10/06 02:14:00;;;;;;;0.20;0.20;;;;;;;13.11;71.47;102116.34;2027186;29;20120;-71
2022/10/06 02:15:03;;;;;;;0.20;0.20;;;;;;;13.13;71.86;102111.38;2032000;29;20641;-71
2022/10/06 02:16:06;;;;;;;0.20;0.20;;;;;;;13.13;71.55;102113.28;2038056;29;20055;-69
2022/10/06 02:17:09;;;;;;;0.28;0.28;;;;;;;13.14;71.48;102117.63;2031758;29;20504;-69
2022/10/06 02:18:11;;;;;;;0.30;0.30;;;;;;;13.15;71.50;102114.56;2021159;29;20053;-69
2022/10/06 02:19:13;;;;;;;0.20;0.20;;;;;;;13.15;71.97;102120.00;2030464;29;20211;-68
2022/10/06 02:20:16;;;;;;;0.20;0.20;;;;;;;13.15;72.02;102121.91;2040053;29;20059;-70
2022/10/06 02:21:20;;;;;;;0.30;0.30;;;;;;;13.16;71.98;102120.81;2039818;29;20051;-69
2022/10/06 02:22:23;;;;;;;0.22;0.22;;;;;;;13.14;72.04;102123.84;2031568;29;20467;-70
2022/10/06 02:23:26;;;;;;;0.20;0.20;;;;;;;13.14;72.24;102125.75;2037662;29;20056;-69
2022/10/06 02:24:29;;;;;;;0.22;0.22;;;;;;;13.14;71.82;102123.03;2039394;29;20056;-68
2022/10/06 02:25:30;;;;;;;0.30;0.30;;;;;;;13.13;72.19;102133.09;2032401;29;20450;-68
2022/10/06 02:26:35;;;;;;;0.30;0.30;;;;;;;13.14;71.97;102139.31;2039694;29;20051;-69
2022/10/06 02:27:37;;;;;;;0.20;0.20;;;;;;;13.10;71.77;102136.44;2037913;29;20092;-69
2022/10/06 02:28:43;;;;;;;0.30;0.30;;;;;;;13.10;72.27;102138.34;2039145;29;20108;-68
2022/10/06 02:29:48;;;;;;;0.30;0.30;;;;;;;13.08;72.30;102141.41;2030199;29;20060;-69
2022/10/06 02:30:51;;;;;;;0.30;0.30;;;;;;;13.08;72.21;102137.91;2032618;29;20571;-69
2022/10/06 02:31:54;;;;;;;0.30;0.30;;;;;;;13.07;72.24;102144.44;2038686;29;20146;-70
2022/10/06 02:32:58;;;;;;;0.30;0.30;;;;;;;13.06;72.52;102149.06;2024290;29;20501;-69
2022/10/06 02:34:01;;;;;;;0.30;0.30;;;;;;;13.06;73.18;102149.06;2023370;29;20056;-70
2022/10/06 02:35:05;;;;;;;0.30;0.30;;;;;;;13.06;72.86;102151.78;2031118;29;20173;-69
2022/10/06 02:36:10;;;;;;;0.40;0.40;;;;;;;13.03;73.36;102149.69;2032705;29;20048;-69
2022/10/06 02:37:14;;;;;;;0.40;0.40;;;;;;;13.03;73.41;102155.13;2032513;29;20201;-68
2022/10/06 02:38:16;;;;;;;0.32;0.32;;;;;;;13.02;73.59;102156.25;2038825;29;20360;-70
2022/10/06 02:39:19;;;;;;;0.30;0.30;;;;;;;13.01;74.19;102162.81;2039435;29;20055;-69
2022/10/06 02:40:22;;;;;;;0.20;0.20;;;;;;;12.99;74.31;102159.59;2031729;29;20060;-69
2022/10/06 02:41:25;;;;;;;0.30;0.30;;;;;;;12.99;74.06;102165.00;2024892;29;20127;-69
2022/10/06 02:42:29;;;;;;;0.30;0.30;;;;;;;12.97;74.27;102161.03;2032781;29;20605;-69
2022/10/06 02:43:32;;;;;;;0.30;0.30;;;;;;;12.96;74.16;102160.22;2038873;29;20047;-69
2022/10/06 02:44:34;;;;;;;0.30;0.30;;;;;;;12.94;74.00;102169.78;2038659;29;20055;-70
2022/10/06 02:45:38;;;;;;;0.30;0.30;;;;;;;12.93;73.60;102166.31;2030593;29;20527;-69
2022/10/06 02:46:40;;;;;;;0.30;0.30;;;;;;;12.91;73.56;102163.13;2032518;29;20051;-68
2022/10/06 02:47:43;;;;;;;0.30;0.30;;;;;;;12.91;73.96;102162.31;2038358;29;20059;-69
2022/10/06 02:48:45;;;;;;;0.40;0.40;;;;;;;12.90;73.61;102166.97;2021170;29;20072;-69
2022/10/06 02:49:48;;;;;;;0.30;0.30;;;;;;;12.91;73.57;102173.16;2022074;29;20059;-69
2022/10/06 02:50:54;;;;;;;0.30;0.30;;;;;;;12.90;73.55;102174.28;2031326;29;20139;-70
2022/10/06 02:51:57;;;;;;;0.30;0.30;;;;;;;12.89;73.43;102181.59;2024285;29;20048;-69
2022/10/06 02:52:59;;;;;;;0.30;0.30;;;;;;;12.88;73.04;102184.66;2022904;29;20056;-68
2022/10/06 02:54:02;;;;;;;0.30;0.30;;;;;;;12.88;72.77;102193.59;2013381;29;20091;-69
2022/10/06 02:55:06;;;;;;;0.30;0.30;;;;;;;12.88;72.40;102195.50;2023898;29;20057;-69
2022/10/06 02:56:11;;;;;;;0.30;0.30;;;;;;;12.84;72.49;102183.72;2031799;29;20102;-69
2022/10/06 02:57:14;;;;;;;0.30;0.30;;;;;;;12.83;72.70;102187.53;2033233;29;20079;-68
2022/10/06 02:58:18;;;;;;;0.30;0.30;;;;;;;12.83;72.10;102188.31;2030787;29;20099;-69
2022/10/06 02:59:20;;;;;;;0.30;0.30;;;;;;;12.83;72.54;102206.50;2023441;29;20052;-69
2022/10/06 03:00:23;;;;;;;0.30;0.30;;;;;;;12.82;72.41;102202.19;2031148;29;20066;-68
2022/10/06 03:01:27;;;;;;;0.38;0.38;;;;;;;12.81;71.76;102214.94;2031427;29;20209;-69
2022/10/06 03:02:33;;;;;;;0.30;0.30;;;;;;;12.79;71.97;102205.56;2024118;29;20080;-69
2022/10/06 03:03:35;;;;;;;0.28;0.28;;;;;;;12.78;71.79;102222.94;2024983;29;20048;-69
2022/10/06 03:04:39;;;;;;;0.30;0.30;;;;;;;12.78;71.78;102206.69;2038422;29;20593;-69
2022/10/06 03:05:41;;;;;;;0.30;0.30;;;;;;;12.77;71.51;102222.16;2038811;29;20068;-69
2022/10/06 03:06:49;;;;;;;0.30;0.30;;;;;;;12.77;71.55;102224.84;2040812;29;20048;-70
2022/10/06 03:07:58;;;;;;;0.20;0.20;;;;;;;12.75;71.84;102226.31;2038734;29;20590;-68
2022/10/06 03:09:06;;;;;;;0.30;0.30;;;;;;;12.72;71.62;102238.56;2030357;29;20626;-68
2022/10/06 03:10:12;;;;;;;0.30;0.30;;;;;;;12.71;71.70;102234.28;2023530;29;20049;-68
2022/10/06 03:11:18;;;;;;;0.30;0.30;;;;;;;12.72;71.67;102232.34;2017396;29;20424;-68
2022/10/06 03:12:21;;;;;;;0.30;0.30;;;;;;;12.71;71.66;102236.97;2024018;29;20056;-68
2022/10/06 03:13:26;;;;;;;0.20;0.20;;;;;;;12.72;71.57;102230.44;2032329;29;20051;-68
2022/10/06 03:14:28;;;;;;;0.30;0.30;;;;;;;12.72;71.81;102230.44;2024058;29;20704;-68
2022/10/06 03:15:31;;;;;;;0.30;0.30;;;;;;;12.73;71.83;102236.66;2024449;29;20056;-68
2022/10/06 03:16:35;;;;;;;0.30;0.30;;;;;;;12.73;71.73;102236.66;2032809;29;20060;-68
2022/10/06 03:17:38;;;;;;;0.30;0.30;;;;;;;12.72;71.34;102241.28;2029186;29;20143;-68
2022/10/06 03:18:43;;;;;;;0.30;0.30;;;;;;;12.72;71.44;102233.16;2023623;29;20056;-69
2022/10/06 03:19:45;;;;;;;0.30;0.30;;;;;;;12.73;71.61;102250.22;2024081;29;20525;-68
2022/10/06 03:20:48;;;;;;;0.28;0.28;;;;;;;12.72;71.51;102237.75;2017227;29;20052;-69
2022/10/06 03:21:51;;;;;;;0.30;0.30;;;;;;;12.70;71.18;102243.50;2022714;29;20052;-68
2022/10/06 03:22:55;;;;;;;0.30;0.30;;;;;;;12.69;71.86;102238.41;2031189;29;20519;-69
2022/10/06 03:23:59;;;;;;;0.30;0.30;;;;;;;12.68;71.58;102237.63;2031061;29;20063;-69
2022/10/06 03:25:02;;;;;;;0.40;0.40;;;;;;;12.67;71.59;102238.72;2040508;29;20498;-69
2022/10/06 03:26:06;;;;;;;0.30;0.30;;;;;;;12.67;71.80;102238.72;2023226;29;20064;-69
2022/10/06 03:27:09;;;;;;;0.40;0.40;;;;;;;12.65;71.61;102238.28;2023653;29;20091;-69
2022/10/06 03:28:11;;;;;;;0.30;0.30;;;;;;;12.64;71.89;102252.91;2022186;29;20052;-68
2022/10/06 03:29:16;;;;;;;0.30;0.30;;;;;;;12.64;71.89;102255.63;2015531;29;20089;-69
2022/10/06 03:30:23;;;;;;;0.38;0.38;;;;;;;12.62;71.82;102259.78;2032713;29;20107;-68
2022/10/06 03:31:26;;;;;;;0.30;0.30;;;;;;;12.63;72.00;102262.16;2039020;29;20062;-69
2022/10/06 03:32:28;;;;;;;0.30;0.30;;;;;;;12.59;72.11;102250.34;2030373;29;20440;-69
2022/10/06 03:33:33;;;;;;;0.30;0.30;;;;;;;12.62;72.13;102257.06;2023478;29;20048;-69
2022/10/06 03:34:36;;;;;;;0.32;0.32;;;;;;;12.61;72.31;102264.41;2023893;29;20053;-69
2022/10/06 03:35:43;;;;;;;0.30;0.30;;;;;;;12.61;72.21;102266.28;2022811;29;20519;-68
2022/10/06 03:36:46;;;;;;;0.38;0.38;;;;;;;12.62;71.99;102273.31;2025391;29;20056;-69
2022/10/06 03:37:51;;;;;;;0.30;0.30;;;;;;;12.63;72.25;102269.50;2030141;29;20110;-69
2022/10/06 03:38:55;;;;;;;0.30;0.30;;;;;;;12.64;72.54;102277.31;2022732;29;20140;-69
2022/10/06 03:39:57;;;;;;;0.30;0.30;;;;;;;12.65;72.20;102268.06;2023022;29;20503;-68
2022/10/06 03:41:05;;;;;;;0.40;0.40;;;;;;;12.66;72.51;102275.06;2030943;29;20578;-68
2022/10/06 03:42:08;;;;;;;0.40;0.40;;;;;;;12.67;72.98;102279.38;2038515;29;20621;-68
2022/10/06 03:43:11;;;;;;;0.30;0.30;;;;;;;12.69;72.90;102273.63;2039374;29;20094;-69
2022/10/06 03:44:16;;;;;;;0.30;0.30;;;;;;;12.70;73.32;102276.00;2038456;29;20435;-68
2022/10/06 03:45:18;;;;;;;0.30;0.30;;;;;;;12.69;73.48;102274.44;2038244;29;20122;-69
2022/10/06 03:46:23;;;;;;;0.30;0.30;;;;;;;12.72;73.39;102271.09;2040557;29;20446;-69
2022/10/06 03:47:25;;;;;;;0.30;0.30;;;;;;;12.71;73.81;102280.34;2029770;29;20087;-69
2022/10/06 03:48:28;;;;;;;0.40;0.40;;;;;;;12.71;nan;102272.22;2021916;29;20196;-69
2022/10/06 03:49:31;;;;;;;0.30;0.30;;;;;;;12.71;74.33;102272.22;2031156;29;20059;-68
2022/10/06 03:50:34;;;;;;;0.30;0.30;;;;;;;12.70;74.49;102270.59;2031137;29;20504;-68
2022/10/06 03:51:38;;;;;;;0.30;0.30;;;;;;;12.71;74.29;102277.63;2039454;29;20051;-70
2022/10/06 03:52:45;;;;;;;0.30;0.30;;;;;;;12.71;74.75;102277.63;2031436;29;20627;-69
2022/10/06 03:53:48;;;;;;;0.30;0.30;;;;;;;12.72;74.18;102279.22;2029772;29;20048;-69
2022/10/06 03:54:51;;;;;;;0.30;0.30;;;;;;;12.69;75.03;102277.16;2025195;29;20128;-69
2022/10/06 03:56:01;;;;;;;0.40;0.40;;;;;;;12.67;75.04;102284.78;2024531;29;20055;-69
2022/10/06 03:57:05;;;;;;;0.30;0.30;;;;;;;12.67;74.83;102284.00;2031354;29;20052;-70
2022/10/06 03:58:07;;;;;;;0.30;0.30;;;;;;;12.67;75.22;102278.59;2025260;29;20063;-67
2022/10/06 03:59:15;;;;;;;0.30;0.30;;;;;;;12.70;74.96;102283.38;2022998;29;20144;-69
2022/10/06 04:00:20;;;;;;;0.30;0.30;;;;;;;12.68;75.25;102278.28;2021894;29;20148;-69
2022/10/06 04:01:25;;;;;;;0.30;0.30;;;;;;;12.67;75.34;102287.50;2022643;29;20091;-69
2022/10/06 04:02:27;;;;;;;0.30;0.30;;;;;;;12.66;75.38;102275.06;2030464;29;20040;-69
2022/10/06 04:03:31;;;;;;;0.25;0.25;;;;;;;12.67;75.45;102279.38;2023261;29;20103;-69
2022/10/06 04:04:33;;;;;;;0.30;0.30;;;;;;;12.67;75.50;102287.50;2031266;29;20163;-69
2022/10/06 04:05:52;;;;;;;0.30;0.30;;;;;;;12.64;75.62;102287.34;2022862;29;20059;-68
2022/10/06 04:06:54;;;;;;;0.30;0.30;;;;;;;12.63;75.69;102288.47;2026025;29;20567;-69
2022/10/06 04:07:57;;;;;;;0.30;0.30;;;;;;;12.63;76.13;102291.97;2039482;29;20086;-69
2022/10/06 04:09:00;;;;;;;0.38;0.38;;;;;;;12.62;75.80;102284.94;2039275;29;20062;-70
2022/10/06 04:10:03;;;;;;;0.30;0.30;;;;;;;12.61;75.76;102299.63;2022446;29;20048;-68
2022/10/06 04:11:07;;;;;;;0.30;0.30;;;;;;;12.62;76.24;102287.66;2016232;29;20075;-69
2022/10/06 04:12:10;;;;;;;0.30;0.30;;;;;;;12.61;76.27;102294.19;2030639;29;20095;-68
2022/10/06 04:13:15;;;;;;;0.20;0.20;;;;;;;12.62;75.90;102295.78;2038631;29;20086;-69
2022/10/06 04:14:18;;;;;;;0.30;0.30;;;;;;;12.63;76.28;102294.69;2033133;29;20040;-68
2022/10/06 04:15:21;;;;;;;0.30;0.30;;;;;;;12.60;76.11;102303.44;2025367;29;20052;-69
2022/10/06 04:16:26;;;;;;;0.30;0.30;;;;;;;12.62;75.67;102303.91;2021649;29;20056;-68
2022/10/06 04:17:28;;;;;;;0.30;0.30;;;;;;;12.64;75.87;102309.81;2030033;29;20083;-69
2022/10/06 04:18:31;;;;;;;0.30;0.30;;;;;;;12.65;76.18;102305.19;2038618;29;20096;-69
2022/10/06 04:19:35;;;;;;;0.30;0.30;;;;;;;12.66;76.37;102312.22;2038189;29;20091;-69
2022/10/06 04:20:37;;;;;;;0.30;0.30;;;;;;;12.66;76.14;102313.00;2032408;29;20047;-70
2022/10/06 04:21:42;;;;;;;0.30;0.30;;;;;;;12.65;76.07;102308.72;2032135;29;20051;-69
2022/10/06 04:22:47;;;;;;;0.38;0.38;;;;;;;12.64;75.77;102315.22;2037466;29;20102;-69
2022/10/06 04:23:52;;;;;;;0.40;0.40;;;;;;;12.65;75.97;102316.84;2029684;29;20112;-69
2022/10/06 04:24:54;;;;;;;0.30;0.30;;;;;;;12.63;75.95;102318.25;2024304;29;20599;-70
2022/10/06 04:25:59;;;;;;;0.30;0.30;;;;;;;12.62;76.17;102312.03;2038663;29;20051;-69
2022/10/06 04:28:26;;;;;;;0.30;0.30;;;;;;;12.57;76.57;102320.34;2028686;29;20052;-70
2022/10/06 04:29:30;;;;;;;0.30;0.30;;;;;;;12.57;76.71;102319.53;2030376;29;20044;-70
2022/10/06 04:30:34;;;;;;;0.30;0.30;;;;;;;12.58;76.50;102326.53;2030383;29;20108;-69
2022/10/06 04:31:39;;;;;;;0.30;0.30;;;;;;;12.56;76.11;102321.44;2037616;29;20092;-69
2022/10/06 04:32:46;;;;;;;0.30;0.30;;;;;;;12.54;76.41;102320.94;2038637;29;20059;-70
2022/10/06 04:33:52;;;;;;;0.40;0.40;;;;;;;12.54;75.95;102323.66;2038038;29;20055;-67
2022/10/06 04:34:55;;;;;;;0.30;0.30;;;;;;;12.54;76.32;102329.09;2038300;29;20043;-69
2022/10/06 04:36:01;;;;;;;0.30;0.30;;;;;;;12.51;76.39;102331.66;2038789;29;20095;-69
2022/10/06 04:37:04;;;;;;;0.40;0.40;;;;;;;12.50;75.98;102325.44;2038199;29;20628;-69
2022/10/06 04:38:08;;;;;;;0.40;0.40;;;;;;;12.51;76.31;102331.66;2023260;29;20144;-69
2022/10/06 04:39:11;;;;;;;0.40;0.40;;;;;;;12.50;76.00;102333.56;2023030;29;20057;-68
2022/10/06 04:40:18;;;;;;;0.40;0.40;;;;;;;12.47;76.30;102330.66;2035394;28;20114;-69
2022/10/06 04:41:22;;;;;;;0.40;0.40;;;;;;;12.48;75.93;102332.28;2028346;29;20060;-69
2022/10/06 04:42:28;;;;;;;0.30;0.30;;;;;;;12.47;75.86;102330.66;2022663;29;20205;-69
2022/10/06 04:43:37;;;;;;;0.40;0.40;;;;;;;12.47;76.42;102347.72;2024141;29;20499;-69
2022/10/06 04:44:40;;;;;;;0.40;0.40;;;;;;;12.48;75.99;102343.13;2031277;29;20044;-69
2022/10/06 04:45:43;;;;;;;0.40;0.40;;;;;;;12.48;75.95;102343.91;2023711;29;20112;-69
2022/10/06 04:46:46;;;;;;;0.40;0.40;;;;;;;12.47;76.08;102347.72;2028550;29;20052;-69
2022/10/06 04:47:49;;;;;;;0.40;0.40;;;;;;;12.49;76.12;102352.84;2037487;29;20082;-69
2022/10/06 04:48:54;;;;;;;0.40;0.40;;;;;;;12.48;76.00;102348.53;2026518;29;20139;-69
2022/10/06 04:49:59;;;;;;;0.40;0.40;;;;;;;12.46;75.69;102356.97;2023281;29;20115;-69
2022/10/06 04:51:04;;;;;;;0.30;0.30;;;;;;;12.49;76.11;102358.25;2024230;29;20071;-69
2022/10/06 04:52:06;;;;;;;0.40;0.40;;;;;;;12.46;76.15;102354.28;2023340;29;20044;-68
2022/10/06 04:53:11;;;;;;;0.40;0.40;;;;;;;12.48;75.61;102364.78;2030754;29;20669;-69
2022/10/06 04:54:13;;;;;;;0.40;0.40;;;;;;;12.47;75.61;102358.56;2030989;29;20052;-69
2022/10/06 04:55:16;;;;;;;0.40;0.40;;;;;;;12.46;75.71;102362.41;2031088;29;20170;-69
2022/10/06 04:56:21;;;;;;;0.40;0.40;;;;;;;12.46;76.41;102362.41;2038779;29;20058;-69
2022/10/06 04:57:24;;;;;;;0.40;0.40;;;;;;;12.45;76.09;102362.69;2037392;29;20239;-68
2022/10/06 04:58:29;;;;;;;0.40;0.40;;;;;;;12.45;76.20;102362.69;2036642;29;20060;-69